sensor_id;sensor_type;location;lat;lon;timestamp;temperature;humidity
34472;DHT22;20710;49.976;19.836;2022-12-29T00:02:31;0.71;76.63
34472;DHT22;20710;49.976;19.836;2022-12-29T00:08:33;0.66;77.01
34472;DHT22;20710;49.976;19.836;2022-12-29T00:14:42;0.69;78.03
34472;DHT22;20710;49.976;19.836;2022-12-29T00:21:02;0.59;78.02
34472;DHT22;20710;49.976;19.836;2022-12-29T00:27:22;0.51;78.44
34472;DHT22;20710;49.976;19.836;2022-12-29T00:33:43;0.49;78.32
34472;DHT22;20710;49.976;19.836;2022-12-29T00:40:04;0.49;78.92
34472;DHT22;20710;49.976;19.836;2022-12-29T00:46:25;0.45;77.86
34472;DHT22;20710;49.976;19.836;2022-12-29T00:52:27;0.49;78.71
34472;DHT22;20710;49.976;19.836;2022-12-29T00:58:30;0.38;79.25
34472;DHT22;20710;49.976;19.836;2022-12-29T01:04:32;0.35;77.45
34472;DHT22;20710;49.976;19.836;2022-12-29T01:10:35;0.41;78.70
34472;DHT22;20710;49.976;19.836;2022-12-29T01:16:37;0.45;80.38
34472;DHT22;20710;49.976;19.836;2022-12-29T01:22:39;0.41;80.14
34472;DHT22;20710;49.976;19.836;2022-12-29T01:28:41;0.41;80.19
34472;DHT22;20710;49.976;19.836;2022-12-29T01:34:44;0.48;80.35
34472;DHT22;20710;49.976;19.836;2022-12-29T01:40:47;0.55;80.31
34472;DHT22;20710;49.976;19.836;2022-12-29T01:46:50;0.59;80.21
34472;DHT22;20710;49.976;19.836;2022-12-29T01:53:14;0.66;80.44
34472;DHT22;20710;49.976;19.836;2022-12-29T01:59:20;0.71;80.93
34472;DHT22;20710;49.976;19.836;2022-12-29T02:06:21;0.68;81.25
34472;DHT22;20710;49.976;19.836;2022-12-29T02:11:45;0.68;80.93
34472;DHT22;20710;49.976;19.836;2022-12-29T02:24:43;0.84;79.57
34472;DHT22;20710;49.976;19.836;2022-12-29T02:30:44;0.89;79.30
34472;DHT22;20710;49.976;19.836;2022-12-29T02:37:02;0.93;81.08
34472;DHT22;20710;49.976;19.836;2022-12-29T02:43:37;0.94;81.06
34472;DHT22;20710;49.976;19.836;2022-12-29T02:55:53;1.07;80.96
34472;DHT22;20710;49.976;19.836;2022-12-29T03:02:30;1.17;81.22
34472;DHT22;20710;49.976;19.836;2022-12-29T03:15:10;1.27;81.23
34472;DHT22;20710;49.976;19.836;2022-12-29T03:21:41;1.31;80.90
34472;DHT22;20710;49.976;19.836;2022-12-29T03:28:15;1.34;79.45
34472;DHT22;20710;49.976;19.836;2022-12-29T03:34:18;1.32;79.93
34472;DHT22;20710;49.976;19.836;2022-12-29T03:40:27;1.31;80.14
34472;DHT22;20710;49.976;19.836;2022-12-29T03:46:27;1.25;80.42
34472;DHT22;20710;49.976;19.836;2022-12-29T03:52:30;1.24;80.42
34472;DHT22;20710;49.976;19.836;2022-12-29T03:58:32;1.17;80.33
34472;DHT22;20710;49.976;19.836;2022-12-29T04:04:45;1.08;80.70
34472;DHT22;20710;49.976;19.836;2022-12-29T04:10:49;1.08;81.11
34472;DHT22;20710;49.976;19.836;2022-12-29T04:16:52;1.10;81.04
34472;DHT22;20710;49.976;19.836;2022-12-29T04:23:04;1.04;81.14
34472;DHT22;20710;49.976;19.836;2022-12-29T04:29:07;1.03;81.22
34472;DHT22;20710;49.976;19.836;2022-12-29T04:35:29;1.08;81.01
34472;DHT22;20710;49.976;19.836;2022-12-29T04:41:32;1.11;80.89
34472;DHT22;20710;49.976;19.836;2022-12-29T04:47:35;1.10;80.89
34472;DHT22;20710;49.976;19.836;2022-12-29T04:53:42;1.07;80.71
34472;DHT22;20710;49.976;19.836;2022-12-29T04:59:45;1.04;80.88
34472;DHT22;20710;49.976;19.836;2022-12-29T05:05:47;0.96;80.93
34472;DHT22;20710;49.976;19.836;2022-12-29T05:11:50;0.90;81.25
34472;DHT22;20710;49.976;19.836;2022-12-29T05:18:20;0.84;81.12
34472;DHT22;20710;49.976;19.836;2022-12-29T05:24:26;0.86;80.43
34472;DHT22;20710;49.976;19.836;2022-12-29T05:30:32;0.87;80.50
34472;DHT22;20710;49.976;19.836;2022-12-29T05:36:35;0.84;80.02
34472;DHT22;20710;49.976;19.836;2022-12-29T05:42:38;0.96;79.66
34472;DHT22;20710;49.976;19.836;2022-12-29T05:48:43;1.11;80.17
34472;DHT22;20710;49.976;19.836;2022-12-29T05:54:56;1.17;80.00
34472;DHT22;20710;49.976;19.836;2022-12-29T06:01:00;1.20;80.01
34472;DHT22;20710;49.976;19.836;2022-12-29T06:07:03;1.18;79.75
34472;DHT22;20710;49.976;19.836;2022-12-29T06:13:16;1.18;78.74
34472;DHT22;20710;49.976;19.836;2022-12-29T06:19:20;1.11;79.13
34472;DHT22;20710;49.976;19.836;2022-12-29T06:25:22;1.07;79.35
34472;DHT22;20710;49.976;19.836;2022-12-29T06:31:27;1.04;79.39
34472;DHT22;20710;49.976;19.836;2022-12-29T06:37:29;0.94;79.34
34472;DHT22;20710;49.976;19.836;2022-12-29T06:43:32;0.91;79.74
34472;DHT22;20710;49.976;19.836;2022-12-29T06:49:45;0.99;79.30
34472;DHT22;20710;49.976;19.836;2022-12-29T06:55:48;1.16;79.23
34472;DHT22;20710;49.976;19.836;2022-12-29T07:01:57;1.34;79.27
34472;DHT22;20710;49.976;19.836;2022-12-29T07:08:03;1.46;78.59
34472;DHT22;20710;49.976;19.836;2022-12-29T07:14:07;2.09;78.15
34472;DHT22;20710;49.976;19.836;2022-12-29T07:20:12;2.97;77.45
34472;DHT22;20710;49.976;19.836;2022-12-29T07:26:18;3.25;74.98
34472;DHT22;20710;49.976;19.836;2022-12-29T07:32:22;3.19;74.22
34472;DHT22;20710;49.976;19.836;2022-12-29T07:38:25;3.15;74.62
34472;DHT22;20710;49.976;19.836;2022-12-29T07:44:27;3.12;74.79
34472;DHT22;20710;49.976;19.836;2022-12-29T07:50:35;2.98;75.02
34472;DHT22;20710;49.976;19.836;2022-12-29T07:56:37;2.92;75.24
34472;DHT22;20710;49.976;19.836;2022-12-29T08:02:45;3.02;75.07
34472;DHT22;20710;49.976;19.836;2022-12-29T08:08:47;2.97;75.16
34472;DHT22;20710;49.976;19.836;2022-12-29T08:14:49;2.95;74.98
34472;DHT22;20710;49.976;19.836;2022-12-29T08:20:53;2.98;75.48
34472;DHT22;20710;49.976;19.836;2022-12-29T08:26:55;3.30;75.26
34472;DHT22;20710;49.976;19.836;2022-12-29T08:33:17;3.71;73.55
34472;DHT22;20710;49.976;19.836;2022-12-29T08:39:16;4.13;72.95
34472;DHT22;20710;49.976;19.836;2022-12-29T08:45:18;4.33;72.19
34472;DHT22;20710;49.976;19.836;2022-12-29T08:51:22;4.43;71.66
34472;DHT22;20710;49.976;19.836;2022-12-29T08:57:24;4.46;71.83
34472;DHT22;20710;49.976;19.836;2022-12-29T09:03:29;4.67;71.84
34472;DHT22;20710;49.976;19.836;2022-12-29T09:09:33;5.00;72.30
34472;DHT22;20710;49.976;19.836;2022-12-29T09:15:35;5.38;72.79
34472;DHT22;20710;49.976;19.836;2022-12-29T09:21:39;6.09;73.55
34472;DHT22;20710;49.976;19.836;2022-12-29T09:27:41;6.83;70.89
34472;DHT22;20710;49.976;19.836;2022-12-29T09:33:45;7.71;70.46
34472;DHT22;20710;49.976;19.836;2022-12-29T09:39:48;8.57;67.60
34472;DHT22;20710;49.976;19.836;2022-12-29T09:46:16;9.26;65.64
34472;DHT22;20710;49.976;19.836;2022-12-29T09:52:23;10.02;62.82
34472;DHT22;20710;49.976;19.836;2022-12-29T09:58:41;10.26;61.11
34472;DHT22;20710;49.976;19.836;2022-12-29T10:04:43;10.65;60.45
34472;DHT22;20710;49.976;19.836;2022-12-29T10:17:47;10.20;61.97
34472;DHT22;20710;49.976;19.836;2022-12-29T10:23:52;10.37;60.75
34472;DHT22;20710;49.976;19.836;2022-12-29T10:29:55;10.72;61.79
34472;DHT22;20710;49.976;19.836;2022-12-29T10:35:58;11.12;61.17
34472;DHT22;20710;49.976;19.836;2022-12-29T10:42:21;11.55;61.59
34472;DHT22;20710;49.976;19.836;2022-12-29T10:48:30;11.84;60.45
34472;DHT22;20710;49.976;19.836;2022-12-29T10:54:49;12.19;57.72
34472;DHT22;20710;49.976;19.836;2022-12-29T11:00:53;12.06;59.85
34472;DHT22;20710;49.976;19.836;2022-12-29T11:06:56;11.84;60.53
34472;DHT22;20710;49.976;19.836;2022-12-29T11:13:15;11.64;61.04
34472;DHT22;20710;49.976;19.836;2022-12-29T11:19:24;11.53;62.24
34472;DHT22;20710;49.976;19.836;2022-12-29T11:25:26;11.49;62.26
34472;DHT22;20710;49.976;19.836;2022-12-29T11:31:28;11.36;62.22
34472;DHT22;20710;49.976;19.836;2022-12-29T11:37:39;11.29;61.17
34472;DHT22;20710;49.976;19.836;2022-12-29T11:43:43;11.30;61.32
34472;DHT22;20710;49.976;19.836;2022-12-29T11:49:51;11.25;59.89
34472;DHT22;20710;49.976;19.836;2022-12-29T11:56:00;11.13;59.95
34472;DHT22;20710;49.976;19.836;2022-12-29T12:08:55;11.17;59.76
34472;DHT22;20710;49.976;19.836;2022-12-29T12:14:58;11.20;60.46
34472;DHT22;20710;49.976;19.836;2022-12-29T12:21:21;11.17;61.12
34472;DHT22;20710;49.976;19.836;2022-12-29T12:27:48;11.20;60.94
34472;DHT22;20710;49.976;19.836;2022-12-29T12:33:57;11.25;60.93
34472;DHT22;20710;49.976;19.836;2022-12-29T12:40:21;11.17;59.72
34472;DHT22;20710;49.976;19.836;2022-12-29T12:53:33;10.94;62.12
34472;DHT22;20710;49.976;19.836;2022-12-29T12:59:52;10.87;62.71
34472;DHT22;20710;49.976;19.836;2022-12-29T13:06:14;11.05;62.97
34472;DHT22;20710;49.976;19.836;2022-12-29T13:12:41;11.22;62.30
34472;DHT22;20710;49.976;19.836;2022-12-29T13:19:13;11.33;61.97
34472;DHT22;20710;49.976;19.836;2022-12-29T13:25:44;11.39;61.43
34472;DHT22;20710;49.976;19.836;2022-12-29T13:38:21;11.39;60.71
34472;DHT22;20710;49.976;19.836;2022-12-29T13:44:37;11.31;60.14
34472;DHT22;20710;49.976;19.836;2022-12-29T13:50:39;11.06;59.62
34472;DHT22;20710;49.976;19.836;2022-12-29T13:56:48;10.77;60.46
34472;DHT22;20710;49.976;19.836;2022-12-29T14:03:18;10.56;60.97
34472;DHT22;20710;49.976;19.836;2022-12-29T14:09:53;10.32;61.73
34472;DHT22;20710;49.976;19.836;2022-12-29T14:15:57;10.05;62.14
34472;DHT22;20710;49.976;19.836;2022-12-29T14:22:03;9.85;62.60
34472;DHT22;20710;49.976;19.836;2022-12-29T14:28:16;9.98;62.53
34472;DHT22;20710;49.976;19.836;2022-12-29T14:34:29;9.95;62.77
34472;DHT22;20710;49.976;19.836;2022-12-29T14:40:31;9.81;63.05
34472;DHT22;20710;49.976;19.836;2022-12-29T14:46:55;9.71;63.20
34472;DHT22;20710;49.976;19.836;2022-12-29T14:53:01;9.58;63.23
34472;DHT22;20710;49.976;19.836;2022-12-29T14:59:04;9.53;63.32
34472;DHT22;20710;49.976;19.836;2022-12-29T15:05:55;9.45;63.47
34472;DHT22;20710;49.976;19.836;2022-12-29T15:11:24;9.43;63.03
34472;DHT22;20710;49.976;19.836;2022-12-29T15:17:33;9.36;62.76
34472;DHT22;20710;49.976;19.836;2022-12-29T15:23:36;9.29;62.70
34472;DHT22;20710;49.976;19.836;2022-12-29T15:29:45;9.12;62.49
34472;DHT22;20710;49.976;19.836;2022-12-29T15:35:52;8.94;62.86
34472;DHT22;20710;49.976;19.836;2022-12-29T15:41:59;8.77;63.01
34472;DHT22;20710;49.976;19.836;2022-12-29T15:48:04;8.56;63.25
34472;DHT22;20710;49.976;19.836;2022-12-29T15:54:20;8.35;63.62
34472;DHT22;20710;49.976;19.836;2022-12-29T16:00:30;8.10;64.01
34472;DHT22;20710;49.976;19.836;2022-12-29T16:06:44;7.94;64.41
34472;DHT22;20710;49.976;19.836;2022-12-29T16:12:49;7.73;64.59
34472;DHT22;20710;49.976;19.836;2022-12-29T16:18:52;7.59;64.77
34472;DHT22;20710;49.976;19.836;2022-12-29T16:25:03;7.41;65.46
34472;DHT22;20710;49.976;19.836;2022-12-29T16:31:32;7.32;65.53
34472;DHT22;20710;49.976;19.836;2022-12-29T16:37:33;7.30;65.66
34472;DHT22;20710;49.976;19.836;2022-12-29T16:43:37;7.20;66.00
34472;DHT22;20710;49.976;19.836;2022-12-29T16:49:50;7.14;66.18
34472;DHT22;20710;49.976;19.836;2022-12-29T16:55:54;7.14;66.13
34472;DHT22;20710;49.976;19.836;2022-12-29T17:01:59;7.20;66.71
34472;DHT22;20710;49.976;19.836;2022-12-29T17:08:02;7.31;66.28
34472;DHT22;20710;49.976;19.836;2022-12-29T17:20:30;7.35;66.15
34472;DHT22;20710;49.976;19.836;2022-12-29T17:26:32;7.27;66.24
34472;DHT22;20710;49.976;19.836;2022-12-29T17:32:34;7.25;66.30
34472;DHT22;20710;49.976;19.836;2022-12-29T17:38:37;7.15;66.76
34472;DHT22;20710;49.976;19.836;2022-12-29T17:44:39;7.02;67.07
34472;DHT22;20710;49.976;19.836;2022-12-29T17:50:47;6.90;67.19
34472;DHT22;20710;49.976;19.836;2022-12-29T17:56:50;6.90;67.53
34472;DHT22;20710;49.976;19.836;2022-12-29T18:02:57;6.79;67.51
34472;DHT22;20710;49.976;19.836;2022-12-29T18:08:58;6.66;68.14
34472;DHT22;20710;49.976;19.836;2022-12-29T18:15:00;6.41;68.22
34472;DHT22;20710;49.976;19.836;2022-12-29T18:21:03;6.16;68.78
34472;DHT22;20710;49.976;19.836;2022-12-29T18:27:13;5.76;69.42
34472;DHT22;20710;49.976;19.836;2022-12-29T18:33:18;5.48;69.42
34472;DHT22;20710;49.976;19.836;2022-12-29T18:39:22;5.24;70.81
34472;DHT22;20710;49.976;19.836;2022-12-29T18:45:24;4.91;71.89
34472;DHT22;20710;49.976;19.836;2022-12-29T18:51:26;4.78;71.50
34472;DHT22;20710;49.976;19.836;2022-12-29T18:57:28;4.65;72.24
34472;DHT22;20710;49.976;19.836;2022-12-29T19:03:31;4.58;73.53
34472;DHT22;20710;49.976;19.836;2022-12-29T19:09:33;4.50;73.51
34472;DHT22;20710;49.976;19.836;2022-12-29T19:15:36;4.54;73.37
34472;DHT22;20710;49.976;19.836;2022-12-29T19:21:43;4.69;73.81
34472;DHT22;20710;49.976;19.836;2022-12-29T19:27:44;4.79;73.01
34472;DHT22;20710;49.976;19.836;2022-12-29T19:33:46;4.96;73.51
34472;DHT22;20710;49.976;19.836;2022-12-29T19:39:52;5.19;73.32
34472;DHT22;20710;49.976;19.836;2022-12-29T19:45:54;5.38;73.12
34472;DHT22;20710;49.976;19.836;2022-12-29T19:51:56;5.62;72.28
34472;DHT22;20710;49.976;19.836;2022-12-29T19:57:58;5.75;72.72
34472;DHT22;20710;49.976;19.836;2022-12-29T20:04:00;5.93;72.23
34472;DHT22;20710;49.976;19.836;2022-12-29T20:10:06;6.24;71.73
34472;DHT22;20710;49.976;19.836;2022-12-29T20:16:15;6.56;71.43
34472;DHT22;20710;49.976;19.836;2022-12-29T20:22:18;6.75;71.04
34472;DHT22;20710;49.976;19.836;2022-12-29T20:28:19;6.90;70.94
34472;DHT22;20710;49.976;19.836;2022-12-29T20:34:21;7.11;69.97
34472;DHT22;20710;49.976;19.836;2022-12-29T20:40:23;7.35;69.33
34472;DHT22;20710;49.976;19.836;2022-12-29T20:46:26;7.69;68.02
34472;DHT22;20710;49.976;19.836;2022-12-29T20:52:30;7.94;68.25
34472;DHT22;20710;49.976;19.836;2022-12-29T20:58:34;8.03;67.90
34472;DHT22;20710;49.976;19.836;2022-12-29T21:04:38;8.08;67.31
34472;DHT22;20710;49.976;19.836;2022-12-29T21:10:39;8.08;67.12
34472;DHT22;20710;49.976;19.836;2022-12-29T21:16:43;8.12;66.88
34472;DHT22;20710;49.976;19.836;2022-12-29T21:22:47;8.08;67.26
34472;DHT22;20710;49.976;19.836;2022-12-29T21:28:50;7.98;67.23
34472;DHT22;20710;49.976;19.836;2022-12-29T21:34:52;7.80;67.25
34472;DHT22;20710;49.976;19.836;2022-12-29T21:40:53;7.70;67.53
34472;DHT22;20710;49.976;19.836;2022-12-29T21:46:55;7.63;67.38
34472;DHT22;20710;49.976;19.836;2022-12-29T21:52:56;7.59;67.23
34472;DHT22;20710;49.976;19.836;2022-12-29T21:58:58;7.45;67.02
34472;DHT22;20710;49.976;19.836;2022-12-29T22:05:20;7.43;66.87
34472;DHT22;20710;49.976;19.836;2022-12-29T22:11:40;7.39;67.05
34472;DHT22;20710;49.976;19.836;2022-12-29T22:18:01;7.38;67.08
34472;DHT22;20710;49.976;19.836;2022-12-29T22:24:05;7.41;66.80
34472;DHT22;20710;49.976;19.836;2022-12-29T22:30:08;7.42;66.29
34472;DHT22;20710;49.976;19.836;2022-12-29T22:36:10;7.42;66.13
34472;DHT22;20710;49.976;19.836;2022-12-29T22:42:14;7.34;66.12
34472;DHT22;20710;49.976;19.836;2022-12-29T22:48:15;7.27;65.95
34472;DHT22;20710;49.976;19.836;2022-12-29T22:54:17;7.13;66.03
34472;DHT22;20710;49.976;19.836;2022-12-29T23:00:19;7.03;66.47
34472;DHT22;20710;49.976;19.836;2022-12-29T23:06:21;6.96;66.47
34472;DHT22;20710;49.976;19.836;2022-12-29T23:12:23;6.94;66.78
34472;DHT22;20710;49.976;19.836;2022-12-29T23:18:25;6.90;66.49
34472;DHT22;20710;49.976;19.836;2022-12-29T23:24:27;6.87;67.06
34472;DHT22;20710;49.976;19.836;2022-12-29T23:30:30;6.75;66.93
34472;DHT22;20710;49.976;19.836;2022-12-29T23:36:33;6.66;67.23
34472;DHT22;20710;49.976;19.836;2022-12-29T23:42:35;6.59;68.00
34472;DHT22;20710;49.976;19.836;2022-12-29T23:48:38;6.62;67.97
34472;DHT22;20710;49.976;19.836;2022-12-29T23:54:40;6.66;67.61
